Time;durP1;ratioP1;P1;durP2;ratioP2;P2;SDS_P1;SDS_P2;PMS_P1;PMS_P2;Temp;Humidity;BMP_temperature;BMP_pressure;BME280_temperature;BME280_humidity;BME280_pressure;Samples;Min_cycle;Max_cycle;Signal;HPM_P1;HPM_P2
2022/10/04 00:04:10;;;;;;;11.25;10.15;;;;;;;11.11;83.84;100967.91;10185740;28;20107;-64
2022/10/04 00:09:18;;;;;;;12.23;9.52;;;;;;;11.24;82.70;100959.84;10186282;28;20055;-64
2022/10/04 00:14:34;;;;;;;17.40;10.52;;;;;;;11.22;83.54;100951.13;10193916;28;20082;-64
2022/10/04 00:19:55;;;;;;;12.77;9.68;;;;;;;11.14;84.62;100954.34;10195082;28;20043;-63
2022/10/04 00:25:17;;;;;;;10.00;8.57;;;;;;;11.11;84.60;100965.22;10194081;28;20047;-65
2022/10/04 00:30:22;;;;;;;13.80;8.75;;;;;;;11.10;84.15;100963.53;10195780;28;20058;-64
2022/10/04 00:35:23;;;;;;;12.40;9.38;;;;;;;10.99;84.46;100950.97;10194808;28;20051;-64
2022/10/04 00:40:29;;;;;;;11.60;9.23;;;;;;;10.91;85.37;100953.31;10212341;28;20369;-64
2022/10/04 00:45:45;;;;;;;12.43;9.50;;;;;;;10.78;85.65;100942.69;10193193;28;20473;-64
2022/10/04 00:51:20;;;;;;;15.38;9.25;;;;;;;10.82;86.26;100943.31;10206185;28;20094;-64
2022/10/04 00:56:38;;;;;;;9.80;8.77;;;;;;;10.79;86.76;100950.56;10199414;28;20052;-62
2022/10/04 01:01:43;;;;;;;13.15;8.55;;;;;;;10.85;86.37;100951.09;10192188;28;20055;-64
2022/10/04 01:06:45;;;;;;;11.73;9.02;;;;;;;10.88;86.92;100943.72;10189513;28;20135;-64
2022/10/04 01:11:58;;;;;;;14.10;10.68;;;;;;;10.77;86.27;100925.84;10205703;28;20044;-64
2022/10/04 01:17:01;;;;;;;10.70;9.43;;;;;;;10.85;88.42;100956.41;10191135;28;20573;-63
2022/10/04 01:22:28;;;;;;;11.13;9.98;;;;;;;10.92;88.61;100955.88;10189626;28;20530;-64
2022/10/04 01:27:32;;;;;;;13.13;10.13;;;;;;;10.90;89.10;100941.81;10193259;28;20817;-61
2022/10/04 01:32:34;;;;;;;12.52;9.82;;;;;;;10.86;88.68;100923.50;10184911;28;20411;-61
2022/10/04 01:37:36;;;;;;;13.57;10.05;;;;;;;10.88;89.59;100905.59;10191034;28;20502;-64
2022/10/04 01:42:51;;;;;;;11.73;9.45;;;;;;;11.04;88.74;100910.69;10189661;28;20735;-63
2022/10/04 01:47:59;;;;;;;13.23;9.95;;;;;;;10.86;88.53;100916.34;10187054;28;20190;-63
2022/10/04 01:53:22;;;;;;;10.25;9.20;;;;;;;10.82;88.54;100908.69;10191210;28;20039;-65
2022/10/04 01:58:29;;;;;;;12.52;9.20;;;;;;;10.76;88.77;100913.50;10189965;28;20086;-64
2022/10/04 02:03:35;;;;;;;11.85;9.18;;;;;;;10.71;88.59;100898.81;10191181;28;20074;-63
2022/10/04 02:08:44;;;;;;;14.05;9.45;;;;;;;10.70;88.87;100905.09;10201920;28;20050;-63
2022/10/04 02:13:49;;;;;;;8.05;7.30;;;;;;;10.68;87.69;100901.69;10190039;28;20070;-64
2022/10/04 02:18:51;;;;;;;6.90;6.18;;;;;;;10.57;87.39;100892.66;10193985;28;20058;-65
2022/10/04 02:23:52;;;;;;;6.88;6.18;;;;;;;10.59;87.05;100874.75;10186950;28;20695;-63
2022/10/04 02:28:53;;;;;;;8.77;6.85;;;;;;;10.61;87.07;100875.50;10185686;28;20070;-65
2022/10/04 02:33:57;;;;;;;6.45;5.85;;;;;;;10.64;86.21;100873.56;10189066;28;20078;-64
2022/10/04 02:39:13;;;;;;;6.85;6.18;;;;;;;10.57;87.49;100867.84;10191569;28;20070;-65
2022/10/04 02:44:24;;;;;;;6.65;6.07;;;;;;;10.66;86.07;100868.97;10188767;28;20047;-64
2022/10/04 02:49:32;;;;;;;6.78;6.07;;;;;;;10.44;85.61;100849.22;10191044;28;20055;-63
2022/10/04 02:55:04;;;;;;;7.97;6.68;;;;;;;10.54;85.79;100873.38;10189463;28;20047;-62
2022/10/04 03:00:15;;;;;;;8.60;7.40;;;;;;;10.51;86.55;100882.44;10184671;28;20502;-63
2022/10/04 03:05:16;;;;;;;8.65;7.75;;;;;;;10.34;86.98;100874.75;10190865;28;20060;-64
2022/10/04 03:10:17;;;;;;;11.13;8.32;;;;;;;10.47;87.84;100875.59;10194986;28;20790;-63
2022/10/04 03:15:19;;;;;;;8.18;7.38;;;;;;;10.51;88.04;100874.44;10185416;28;20505;-64
2022/10/04 03:20:20;;;;;;;7.70;6.90;;;;;;;10.47;87.68;100864.97;10188916;28;20058;-63
2022/10/04 03:25:34;;;;;;;9.80;7.57;;;;;;;10.51;87.41;100879.75;10194543;28;20048;-63
2022/10/04 03:30:35;;;;;;;9.00;7.90;;;;;;;10.46;85.94;100867.72;10189151;28;20367;-63
2022/10/04 03:35:39;;;;;;;10.60;8.00;;;;;;;10.21;87.66;100858.78;10191482;28;20059;-63
2022/10/04 03:40:46;;;;;;;9.27;6.72;;;;;;;9.93;88.29;100823.44;10197919;28;20051;-63
2022/10/04 03:45:48;;;;;;;12.00;7.32;;;;;;;9.99;89.44;100848.75;10189582;28;20047;-63
2022/10/04 03:50:50;;;;;;;10.07;6.55;;;;;;;10.02;90.87;100852.06;10193174;28;20045;-63
2022/10/04 03:55:52;;;;;;;10.73;7.47;;;;;;;10.25;89.55;100849.59;10200568;28;20089;-63
2022/10/04 04:01:05;;;;;;;9.73;7.07;;;;;;;10.15;89.87;100843.22;10191920;28;20055;-64
2022/10/04 04:06:14;;;;;;;9.27;7.63;;;;;;;10.14;89.74;100841.53;10192990;28;20035;-62
2022/10/04 04:11:22;;;;;;;8.43;6.78;;;;;;;10.13;88.80;100850.47;10194418;28;20141;-64
2022/10/04 04:16:25;;;;;;;9.15;7.30;;;;;;;10.08;89.32;100826.84;10194137;28;20055;-62
2022/10/04 04:21:27;;;;;;;8.73;6.95;;;;;;;10.06;88.14;100818.97;10194586;28;20070;-62
2022/10/04 04:26:53;;;;;;;7.80;7.00;;;;;;;10.26;87.01;100846.84;10194006;28;20052;-63
2022/10/04 04:32:00;;;;;;;8.57;6.90;;;;;;;10.30;85.83;100846.63;10208064;28;20722;-62
2022/10/04 04:37:03;;;;;;;7.60;6.90;;;;;;;10.19;87.30;100826.09;10196863;28;20476;-63
2022/10/04 04:42:10;;;;;;;7.78;6.70;;;;;;;10.30;85.99;100835.97;10193849;28;20070;-61
2022/10/04 04:47:25;;;;;;;10.57;7.32;;;;;;;10.35;86.04;100836.56;10190572;28;20070;-63
2022/10/04 04:52:28;;;;;;;8.02;7.30;;;;;;;10.27;87.21;100840.56;10171462;28;20066;-63
2022/10/04 04:57:32;;;;;;;8.30;7.20;;;;;;;10.27;87.40;100837.06;10181404;28;20055;-64
2022/10/04 05:02:36;;;;;;;5.97;5.47;;;;;;;10.19;86.92;100837.59;10184604;28;20055;-63
2022/10/04 05:07:37;;;;;;;5.90;5.30;;;;;;;10.16;86.88;100843.09;10184698;28;20055;-61
2022/10/04 05:12:38;;;;;;;5.85;5.32;;;;;;;10.07;87.16;100825.13;10184888;28;20052;-63
2022/10/04 05:17:40;;;;;;;5.78;4.97;;;;;;;10.09;86.22;100844.53;10182568;28;20046;-64
2022/10/04 05:22:46;;;;;;;5.38;4.70;;;;;;;10.03;86.63;100840.47;10182145;28;20538;-61
2022/10/04 05:27:48;;;;;;;5.60;4.50;;;;;;;9.98;86.25;100837.25;10194994;28;20055;-62
2022/10/04 05:33:00;;;;;;;5.75;4.05;;;;;;;10.03;85.98;100850.25;10183863;28;20063;-63
2022/10/04 05:38:32;;;;;;;8.60;4.78;;;;;;;10.02;85.60;100848.56;10182637;28;20065;-62
2022/10/04 05:43:33;;;;;;;7.03;4.85;;;;;;;10.04;85.46;100846.63;10182797;28;20043;-64
2022/10/04 05:48:41;;;;;;;5.22;4.72;;;;;;;10.09;87.29;100833.88;10184460;28;20530;-63
2022/10/04 05:53:43;;;;;;;4.63;4.18;;;;;;;9.99;86.90;100830.97;10177005;28;20657;-63
2022/10/04 05:59:00;;;;;;;4.78;4.05;;;;;;;10.10;86.21;100840.88;10184048;28;20368;-63
2022/10/04 06:04:20;;;;;;;5.00;4.18;;;;;;;10.32;84.57;100850.03;10183025;28;20537;-62
2022/10/04 06:09:54;;;;;;;4.32;3.90;;;;;;;10.34;84.22;100854.31;10195865;28;20505;-61
2022/10/04 06:15:23;;;;;;;5.47;4.10;;;;;;;10.37;83.33;100867.44;10184538;28;20055;-62
2022/10/04 06:20:34;;;;;;;5.43;4.82;;;;;;;10.41;83.73;100881.38;10181921;28;20050;-63
2022/10/04 06:25:43;;;;;;;5.22;4.72;;;;;;;10.40;83.81;100875.19;10176152;28;20054;-64
2022/10/04 06:31:25;;;;;;;5.97;5.07;;;;;;;10.53;84.07;100877.84;10179428;28;20060;-63
2022/10/04 06:37:15;;;;;;;5.13;4.65;;;;;;;10.61;83.60;100883.50;10395642;27;20398;-57
2022/10/04 06:42:36;;;;;;;5.40;4.90;;;;;;;10.74;82.64;100880.78;10382990;28;20506;-56
2022/10/04 06:48:05;;;;;;;9.35;8.43;;;;;;;10.74;83.91;100871.97;10392198;28;20227;-56
2022/10/04 06:53:15;;;;;;;5.70;5.10;;;;;;;10.72;83.78;100879.19;10387437;28;20048;-58
2022/10/04 06:58:41;;;;;;;6.60;6.10;;;;;;;10.79;83.57;100870.69;10403455;28;20059;-57
2022/10/04 07:04:03;;;;;;;5.38;4.88;;;;;;;10.70;82.11;100860.66;10395538;28;20094;-56
2022/10/04 07:09:15;;;;;;;6.40;4.97;;;;;;;10.67;82.97;100857.38;10387791;28;20309;-57
2022/10/04 07:14:34;;;;;;;6.05;5.45;;;;;;;10.81;84.87;100851.06;10391417;28;20041;-58
2022/10/04 07:19:44;;;;;;;5.75;5.22;;;;;;;10.73;83.20;100831.19;10391276;28;20409;-56
2022/10/04 07:24:55;;;;;;;6.72;6.03;;;;;;;10.91;82.81;100837.00;10391843;28;20510;-56
2022/10/04 07:30:05;;;;;;;6.18;5.65;;;;;;;10.93;82.55;100824.41;10387132;28;20063;-55
2022/10/04 07:35:13;;;;;;;6.95;6.05;;;;;;;11.21;82.19;100848.16;10401505;28;20049;-59
2022/10/04 07:40:23;;;;;;;7.03;6.25;;;;;;;11.55;81.76;100861.66;10384932;28;20037;-57
2022/10/04 07:45:31;;;;;;;8.90;6.72;;;;;;;11.75;82.69;100857.47;10370927;28;20103;-58
2022/10/04 07:50:58;;;;;;;8.20;6.43;;;;;;;11.93;80.41;100861.44;10356899;28;20832;-55
2022/10/04 07:56:12;;;;;;;7.75;6.95;;;;;;;12.16;78.78;100878.34;10357663;28;20059;-55
2022/10/04 08:01:21;;;;;;;7.35;6.65;;;;;;;12.27;78.44;100882.84;10357444;28;20037;-57
2022/10/04 08:06:53;;;;;;;9.88;7.35;;;;;;;12.37;78.09;100886.50;10358776;28;20061;-56
2022/10/04 08:12:32;;;;;;;8.52;7.57;;;;;;;12.63;77.84;100874.75;10357237;28;20045;-57
2022/10/04 08:17:55;;;;;;;9.02;7.03;;;;;;;12.85;77.56;100868.53;10356978;28;20052;-56
2022/10/04 08:23:01;;;;;;;9.48;8.57;;;;;;;13.18;76.64;100858.75;10351953;28;20049;-56
2022/10/04 08:33:55;;;;;;;11.75;9.25;;;;;;;13.63;74.06;100871.16;10362812;28;20049;-57
2022/10/04 08:38:59;;;;;;;10.43;8.93;;;;;;;13.94;71.63;100866.75;10354544;28;20734;-56
2022/10/04 08:44:11;;;;;;;12.48;9.48;;;;;;;14.02;72.21;100874.09;10363811;28;20125;-61
2022/10/04 08:49:51;;;;;;;11.85;9.77;;;;;;;14.22;71.86;100869.75;10354664;28;20052;-57
2022/10/04 08:55:19;;;;;;;11.00;9.82;;;;;;;14.62;69.67;100869.84;10353689;28;20063;-57
2022/10/04 09:00:42;;;;;;;10.38;9.18;;;;;;;14.98;68.78;100872.03;10360033;28;20088;-63
2022/10/04 09:05:57;;;;;;;9.40;8.50;;;;;;;15.44;66.28;100867.06;10357268;28;20053;-57
2022/10/04 09:11:40;;;;;;;10.23;8.63;;;;;;;15.89;65.83;100874.56;10360198;28;20045;-56
2022/10/04 09:17:07;;;;;;;12.05;9.00;;;;;;;16.02;63.90;100866.22;10358403;28;20599;-57
2022/10/04 09:22:17;;;;;;;11.82;9.38;;;;;;;16.12;64.60;100853.59;10358548;28;20052;-57
2022/10/04 09:27:56;;;;;;;11.95;9.10;;;;;;;16.47;64.17;100870.91;10366906;28;20049;-58
2022/10/04 09:33:12;;;;;;;10.38;9.00;;;;;;;16.72;62.82;100857.75;10352697;28;20101;-57
2022/10/04 09:38:41;;;;;;;9.25;8.25;;;;;;;17.05;61.85;100861.72;10356877;28;20398;-57
2022/10/04 09:44:12;;;;;;;8.85;8.05;;;;;;;17.49;61.39;100844.84;10358905;28;20057;-56
2022/10/04 09:49:33;;;;;;;9.75;7.75;;;;;;;18.59;57.55;100852.53;10362270;28;20323;-58
2022/10/04 09:55:08;;;;;;;9.88;8.25;;;;;;;20.19;52.09;100850.59;10335985;28;20471;-58
2022/10/04 10:00:10;;;;;;;7.20;6.15;;;;;;;21.36;49.26;100837.25;10343550;28;20234;-58
2022/10/04 10:05:23;;;;;;;9.60;7.15;;;;;;;22.42;45.23;100832.75;10344316;28;20044;-57
2022/10/04 10:15:58;;;;;;;7.38;5.95;;;;;;;22.01;43.17;100830.47;10356533;28;20471;-57
2022/10/04 10:21:25;;;;;;;6.95;6.25;;;;;;;20.82;45.71;100830.81;10355232;28;20778;-57
2022/10/04 10:26:48;;;;;;;7.68;6.68;;;;;;;19.87;49.19;100825.31;10357512;28;20076;-57
2022/10/04 10:32:19;;;;;;;6.80;5.38;;;;;;;19.66;49.91;100832.06;10354529;28;20056;-57
2022/10/04 10:37:34;;;;;;;7.82;5.80;;;;;;;19.31;51.73;100827.84;10358869;28;20047;-57
2022/10/04 10:42:38;;;;;;;10.00;5.95;;;;;;;19.94;51.18;100837.16;10344926;28;20041;-56
2022/10/04 10:47:59;;;;;;;7.05;5.47;;;;;;;22.86;44.71;100832.91;10361332;28;20056;-57
2022/10/04 10:53:40;;;;;;;8.10;5.40;;;;;;;26.55;35.92;100822.69;10356543;28;20071;-57
2022/10/04 10:58:56;;;;;;;8.30;4.25;;;;;;;30.86;29.19;100825.25;10354080;28;21399;-57
2022/10/04 11:04:29;;;;;;;4.32;3.90;;;;;;;33.11;25.28;100821.50;10361267;28;20045;-58
2022/10/04 11:09:45;;;;;;;4.43;3.30;;;;;;;35.21;22.89;100815.56;10355416;28;20182;-58
2022/10/04 11:14:54;;;;;;;4.72;3.03;;;;;;;37.12;20.04;100812.31;10355193;28;20065;-58
2022/10/04 11:20:12;;;;;;;5.15;2.97;;;;;;;32.50;24.42;100807.00;10362031;28;20071;-57
2022/10/04 11:25:55;;;;;;;4.97;2.50;;;;;;;27.36;30.61;100804.84;10361063;28;20052;-57
2022/10/04 11:31:08;;;;;;;4.60;3.10;;;;;;;26.02;35.00;100799.13;10365162;28;20053;-58
2022/10/04 11:36:37;;;;;;;3.65;2.65;;;;;;;34.17;24.24;100794.19;10361553;28;20132;-58
2022/10/04 11:42:06;;;;;;;4.10;3.13;;;;;;;37.73;19.23;100785.19;10363199;28;20049;-58
2022/10/04 11:47:34;;;;;;;3.40;2.20;;;;;;;39.58;18.28;100788.25;10363517;28;20057;-58
2022/10/04 11:52:54;;;;;;;6.13;2.10;;;;;;;40.38;15.67;100765.78;10372329;28;21031;-58
2022/10/04 11:57:58;;;;;;;2.47;1.58;;;;;;;40.68;16.54;100755.91;10366132;28;20049;-58
2022/10/04 12:03:12;;;;;;;4.80;2.03;;;;;;;41.36;15.65;100735.59;10366700;28;20136;-58
2022/10/04 12:08:16;;;;;;;2.70;1.30;;;;;;;42.17;15.04;100740.03;10348575;28;20050;-59
2022/10/04 12:13:49;;;;;;;3.30;1.35;;;;;;;42.45;14.79;100739.75;10344040;28;20053;-59
2022/10/04 12:19:15;;;;;;;1.92;1.10;;;;;;;42.08;14.86;100731.59;10344096;28;20320;-59
2022/10/04 12:24:35;;;;;;;3.10;1.50;;;;;;;42.56;14.56;100693.50;10351491;28;20045;-60
2022/10/04 12:29:44;;;;;;;3.58;1.27;;;;;;;43.22;13.88;100707.28;10352951;28;20059;-63
2022/10/04 12:35:04;;;;;;;3.85;1.17;;;;;;;43.78;12.93;100695.19;10344866;28;21093;-59
2022/10/04 12:40:08;;;;;;;2.33;1.35;;;;;;;43.90;13.82;100703.75;10359562;28;20060;-59
2022/10/04 12:45:32;;;;;;;3.10;1.10;;;;;;;44.08;12.76;100695.19;10361767;28;20053;-59
2022/10/04 12:50:59;;;;;;;2.85;1.20;;;;;;;44.21;12.37;100682.91;10366976;28;20072;-59
2022/10/04 12:56:12;;;;;;;1.83;1.10;;;;;;;44.46;13.22;100683.88;10362376;28;20187;-59
2022/10/04 13:01:31;;;;;;;2.40;1.00;;;;;;;43.80;12.69;100684.47;10358392;28;20038;-59
2022/10/04 13:07:09;;;;;;;3.45;1.10;;;;;;;43.07;13.59;100682.63;10363019;28;20621;-59
2022/10/04 13:12:28;;;;;;;1.65;0.90;;;;;;;42.85;12.85;100669.63;10364195;28;20888;-59
2022/10/04 13:17:42;;;;;;;4.88;1.33;;;;;;;42.10;13.11;100673.41;10354625;28;20045;-59
2022/10/04 13:23:00;;;;;;;2.60;0.90;;;;;;;43.08;13.34;100668.28;10374409;28;20143;-59
2022/10/04 13:33:29;;;;;;;6.25;1.08;;;;;;;42.20;13.17;100666.69;10240329;28;20045;-67
2022/10/04 13:38:52;;;;;;;1.52;1.10;;;;;;;41.83;13.68;100664.16;10268555;28;20046;-66
2022/10/04 13:44:06;;;;;;;4.18;1.20;;;;;;;42.35;14.38;100654.19;10263128;28;20755;-66
2022/10/04 13:49:45;;;;;;;3.10;0.70;;;;;;;42.54;13.27;100643.47;10263299;28;20058;-66
2022/10/04 14:00:49;;;;;;;4.53;0.88;;;;;;;40.89;14.07;100629.88;10257021;28;20486;-67
2022/10/04 14:06:13;;;;;;;2.47;0.90;;;;;;;39.86;14.79;100629.47;10258965;28;21028;-65
2022/10/04 14:11:41;;;;;;;4.82;1.00;;;;;;;39.63;15.99;100623.81;10261498;28;20050;-64
2022/10/04 14:16:46;;;;;;;2.45;1.25;;;;;;;38.13;17.40;100631.06;10264875;28;20046;-63
2022/10/04 14:22:07;;;;;;;3.88;0.88;;;;;;;33.55;22.51;100632.06;10266015;28;20049;-64
2022/10/04 14:27:22;;;;;;;3.05;0.85;;;;;;;30.46;26.60;100623.69;10263502;28;20050;-63
2022/10/04 14:32:38;;;;;;;4.75;0.98;;;;;;;28.54;28.16;100602.41;10263586;28;20050;-64
2022/10/04 14:37:42;;;;;;;2.53;0.82;;;;;;;27.32;29.62;100606.81;10266268;28;20502;-64
2022/10/04 14:42:55;;;;;;;2.47;1.20;;;;;;;26.31;31.26;100608.66;10262397;28;20065;-62
2022/10/04 14:48:16;;;;;;;3.13;1.42;;;;;;;25.18;34.04;100602.50;10264003;28;20053;-62
2022/10/04 14:53:40;;;;;;;3.00;1.05;;;;;;;24.27;35.04;100595.72;10265899;28;20397;-62
2022/10/04 14:59:03;;;;;;;4.25;1.48;;;;;;;23.63;36.64;100593.16;10271038;28;20490;-62
2022/10/04 15:04:40;;;;;;;4.07;1.40;;;;;;;22.91;38.25;100581.59;10280736;28;20058;-61
2022/10/04 15:10:02;;;;;;;4.10;1.50;;;;;;;22.25;39.39;100577.19;10265908;28;20053;-61
2022/10/04 15:15:13;;;;;;;2.97;1.20;;;;;;;21.68;40.84;100586.13;10270379;28;21455;-62
2022/10/04 15:20:23;;;;;;;2.20;1.48;;;;;;;21.31;41.87;100587.88;10272600;28;20567;-66
2022/10/04 15:25:50;;;;;;;3.03;1.38;;;;;;;21.30;42.30;100595.16;10269472;28;20165;-62
2022/10/04 15:30:57;;;;;;;3.15;1.70;;;;;;;21.06;42.93;100588.09;10286110;28;20050;-60
2022/10/04 15:36:38;;;;;;;3.78;1.50;;;;;;;20.95;43.59;100584.00;10269700;28;20392;-61
2022/10/04 15:42:10;;;;;;;2.78;1.60;;;;;;;20.62;44.96;100586.13;10271772;28;20140;-61
2022/10/04 15:47:23;;;;;;;4.28;1.70;;;;;;;20.37;45.71;100571.94;10265531;28;20443;-62
2022/10/04 15:52:49;;;;;;;3.58;1.83;;;;;;;20.09;46.73;100559.78;10271114;28;20054;-61
2022/10/04 15:58:10;;;;;;;3.50;1.77;;;;;;;20.10;47.06;100560.63;10268327;28;20061;-61
2022/10/04 16:03:32;;;;;;;4.07;1.75;;;;;;;20.05;47.61;100563.88;10267868;28;20053;-62
2022/10/04 16:08:48;;;;;;;3.60;1.83;;;;;;;19.91;48.42;100561.94;10264534;28;20046;-62
2022/10/04 16:13:49;;;;;;;3.35;2.45;;;;;;;19.77;48.83;100553.56;10271046;28;20187;-62
2022/10/04 16:19:18;;;;;;;3.20;1.73;;;;;;;19.69;49.23;100552.72;10267561;28;20292;-61
2022/10/04 16:24:20;;;;;;;3.13;2.13;;;;;;;19.52;49.30;100551.97;10271930;28;20543;-62
2022/10/04 16:29:36;;;;;;;2.53;1.77;;;;;;;19.50;49.70;100554.84;10268383;28;20053;-62
2022/10/04 16:34:56;;;;;;;4.88;2.30;;;;;;;19.36;51.04;100525.88;10272163;28;20050;-62
2022/10/04 16:40:33;;;;;;;3.70;2.03;;;;;;;19.22;52.42;100543.63;10272083;28;20808;-61
2022/10/04 16:45:46;;;;;;;3.28;2.10;;;;;;;19.03;52.26;100547.53;10268771;28;20047;-61
2022/10/04 16:50:53;;;;;;;4.00;2.63;;;;;;;18.99;53.22;100552.44;10273701;28;20052;-61
2022/10/04 16:56:01;;;;;;;4.57;2.13;;;;;;;18.93;55.09;100561.22;10270656;28;21061;-62
2022/10/04 17:01:31;;;;;;;4.95;2.50;;;;;;;18.75;55.96;100555.13;10269210;28;20054;-61
2022/10/04 17:06:51;;;;;;;6.55;3.60;;;;;;;18.72;56.21;100562.56;10269973;28;20050;-61
2022/10/04 17:12:12;;;;;;;4.35;3.47;;;;;;;18.53;57.23;100573.69;10272068;28;20538;-60
2022/10/04 17:17:32;;;;;;;11.98;8.68;;;;;;;18.30;59.37;100574.31;10273168;28;20816;-61
2022/10/04 17:23:11;;;;;;;7.47;4.88;;;;;;;18.24;60.09;100582.22;10273925;28;20061;-61
2022/10/04 17:28:32;;;;;;;15.48;7.63;;;;;;;18.06;61.55;100576.97;10274114;28;20045;-62
2022/10/04 17:33:53;;;;;;;7.78;5.35;;;;;;;17.90;62.69;100581.31;10267114;28;20054;-63
2022/10/04 17:39:01;;;;;;;8.30;6.15;;;;;;;17.86;62.63;100585.28;10250481;28;20061;-62
2022/10/04 17:44:25;;;;;;;7.68;5.90;;;;;;;17.77;61.90;100587.09;10255302;28;20081;-61
2022/10/04 17:55:14;;;;;;;12.35;7.97;;;;;;;17.49;64.63;100597.25;10259885;28;20606;-60
2022/10/04 18:00:20;;;;;;;10.50;6.20;;;;;;;17.54;64.53;100600.31;10266461;28;20485;-62
2022/10/04 18:05:28;;;;;;;6.88;5.75;;;;;;;17.42;65.40;100591.66;10261761;28;20064;-62
2022/10/04 18:10:39;;;;;;;8.80;5.47;;;;;;;17.38;65.36;100605.59;10270225;28;20476;-62
2022/10/04 18:15:52;;;;;;;7.25;5.03;;;;;;;17.27;65.99;100610.25;10270115;28;20049;-64
2022/10/04 18:20:53;;;;;;;7.00;5.85;;;;;;;17.21;65.62;100608.19;10271910;28;20163;-62
2022/10/04 18:26:17;;;;;;;9.80;5.25;;;;;;;17.08;66.31;100605.06;10266110;28;20057;-62
2022/10/04 18:31:34;;;;;;;8.20;5.28;;;;;;;16.90;66.64;100605.97;10272359;28;20126;-62
2022/10/04 18:36:50;;;;;;;7.10;5.65;;;;;;;16.77;67.72;100603.63;10270742;28;20386;-63
2022/10/04 18:42:20;;;;;;;6.95;4.97;;;;;;;16.68;67.95;100604.56;10268420;28;20052;-63
2022/10/04 18:47:40;;;;;;;7.65;5.30;;;;;;;16.66;67.88;100605.72;10269677;28;20045;-62
2022/10/04 18:53:12;;;;;;;7.10;5.50;;;;;;;16.54;67.79;100608.66;10285587;28;20062;-63
2022/10/04 19:04:08;;;;;;;8.35;6.30;;;;;;;16.35;69.33;100623.06;10262619;28;20056;-63
2022/10/04 19:09:09;;;;;;;9.32;7.07;;;;;;;16.32;69.43;100625.19;10266495;28;20073;-63
2022/10/04 19:14:27;;;;;;;7.15;6.45;;;;;;;16.23;70.00;100633.19;10262665;28;20454;-62
2022/10/04 19:19:51;;;;;;;8.45;6.65;;;;;;;16.24;69.25;100640.25;10263521;28;20118;-62
2022/10/04 19:25:14;;;;;;;10.52;7.57;;;;;;;16.10;69.98;100659.53;10266500;28;20105;-69
2022/10/04 19:30:20;;;;;;;11.82;7.90;;;;;;;15.98;70.04;100661.59;10263647;28;20466;-63
2022/10/04 19:35:36;;;;;;;9.55;7.72;;;;;;;15.88;71.06;100656.28;10266561;28;20483;-62
2022/10/04 19:40:49;;;;;;;10.13;7.35;;;;;;;15.94;70.62;100657.50;10269253;28;20042;-65
2022/10/04 19:46:15;;;;;;;10.32;9.20;;;;;;;15.83;70.71;100657.72;10270353;28;20057;-63
2022/10/04 19:51:44;;;;;;;11.40;9.00;;;;;;;15.88;70.74;100661.66;10263916;28;20073;-63
2022/10/04 19:56:48;;;;;;;11.07;9.48;;;;;;;15.77;71.01;100661.78;10266251;28;20049;-63
2022/10/04 20:01:51;;;;;;;11.13;9.07;;;;;;;15.66;71.26;100664.66;10266540;28;20064;-62
2022/10/04 20:06:55;;;;;;;14.93;10.30;;;;;;;15.54;71.79;100658.63;10263371;28;20492;-63
2022/10/04 20:11:58;;;;;;;10.23;9.02;;;;;;;15.49;72.66;100648.34;10269384;28;20046;-63
2022/10/04 20:16:59;;;;;;;11.40;8.63;;;;;;;15.50;71.97;100652.69;10271087;28;20057;-62
2022/10/04 20:22:07;;;;;;;8.05;7.25;;;;;;;15.46;72.73;100672.78;10261060;28;20055;-62
2022/10/04 20:27:20;;;;;;;10.25;8.80;;;;;;;15.34;73.57;100677.47;10260063;28;20121;-62
2022/10/04 20:32:25;;;;;;;15.97;10.40;;;;;;;15.13;74.24;100676.78;10263406;28;20042;-63
2022/10/04 20:37:51;;;;;;;14.32;9.65;;;;;;;14.96;75.51;100676.50;10264821;28;20050;-62
2022/10/04 20:43:12;;;;;;;13.60;8.63;;;;;;;14.88;75.60;100675.50;10266819;28;21496;-63
2022/10/04 20:48:21;;;;;;;11.65;8.32;;;;;;;14.76;76.95;100672.16;10279258;28;20042;-62
2022/10/04 20:53:28;;;;;;;9.32;8.40;;;;;;;14.65;77.41;100673.09;10294211;28;20054;-63
2022/10/04 20:58:33;;;;;;;11.60;8.85;;;;;;;14.66;77.35;100678.31;10297832;28;20447;-63
2022/10/04 21:03:35;;;;;;;11.70;9.77;;;;;;;14.55;77.95;100678.44;10298356;28;20054;-63
2022/10/04 21:08:38;;;;;;;14.07;9.23;;;;;;;14.61;77.44;100677.06;10298197;28;20542;-63
2022/10/04 21:13:53;;;;;;;11.90;8.32;;;;;;;14.61;77.98;100677.06;10300268;28;20057;-62
2022/10/04 21:18:54;;;;;;;11.10;8.20;;;;;;;14.48;78.00;100661.22;10291086;28;20050;-63
2022/10/04 21:23:55;;;;;;;10.07;7.82;;;;;;;14.48;78.32;100659.38;10301749;28;20061;-63
2022/10/04 21:28:57;;;;;;;11.30;8.25;;;;;;;14.45;77.78;100654.31;10301274;28;20524;-63
2022/10/04 21:33:58;;;;;;;9.27;7.60;;;;;;;14.27;78.50;100650.63;10295337;28;20053;-63
2022/10/04 21:39:00;;;;;;;11.23;8.25;;;;;;;14.20;79.08;100652.16;10299707;28;20050;-63
2022/10/04 21:44:01;;;;;;;10.73;7.75;;;;;;;14.11;79.89;100643.97;10289904;28;20065;-62
2022/10/04 21:49:03;;;;;;;9.07;7.93;;;;;;;14.07;79.48;100647.91;10256180;28;20128;-62
2022/10/04 21:54:05;;;;;;;9.27;7.95;;;;;;;14.04;79.18;100640.13;10267973;28;20050;-62
2022/10/04 21:59:06;;;;;;;7.78;7.07;;;;;;;13.95;80.19;100640.97;10288483;28;20133;-63
2022/10/04 22:04:08;;;;;;;10.30;7.60;;;;;;;13.84;80.28;100633.88;10291480;28;20050;-63
2022/10/04 22:09:10;;;;;;;9.55;7.22;;;;;;;13.78;80.47;100626.38;10299652;28;20056;-62
2022/10/04 22:14:11;;;;;;;9.88;7.78;;;;;;;13.71;81.26;100641.28;10297492;28;20072;-63
2022/10/04 22:19:12;;;;;;;8.20;6.95;;;;;;;13.87;81.82;100630.06;10293708;28;20050;-62
2022/10/04 22:24:17;;;;;;;9.20;7.40;;;;;;;13.91;79.84;100626.16;10295409;28;20051;-63
2022/10/04 22:29:19;;;;;;;8.73;7.47;;;;;;;13.88;80.01;100618.41;10307701;28;20056;-63
2022/10/04 22:34:21;;;;;;;10.20;6.70;;;;;;;13.97;78.97;100630.97;10298194;28;20057;-64
2022/10/04 22:39:23;;;;;;;9.85;7.53;;;;;;;13.81;79.66;100622.59;10301894;28;20488;-62
2022/10/04 22:44:33;;;;;;;10.68;7.50;;;;;;;13.63;80.56;100612.53;10294610;28;20633;-63
2022/10/04 22:49:37;;;;;;;9.80;6.72;;;;;;;13.70;80.33;100607.50;10295493;28;20534;-62
2022/10/04 22:54:41;;;;;;;;;;;;;;;13.64;80.11;100608.88;10293309;28;20049;-62
2022/10/04 22:59:48;;;;;;;8.70;6.95;;;;;;;13.73;79.73;100608.06;10295243;28;19932;-62
2022/10/04 23:05:08;;;;;;;7.93;6.35;;;;;;;13.68;78.62;100607.63;10258450;28;20038;-63
2022/10/04 23:10:11;;;;;;;9.68;6.80;;;;;;;13.50;79.26;100609.25;10251029;28;20701;-63
2022/10/04 23:15:15;;;;;;;8.53;6.90;;;;;;;13.50;79.92;100614.59;10253554;28;20050;-63
2022/10/04 23:20:19;;;;;;;7.95;6.47;;;;;;;13.48;79.35;100608.53;10306822;28;20470;-63
2022/10/04 23:25:26;;;;;;;6.23;5.63;;;;;;;13.48;79.33;100613.88;10286604;28;20050;-63
2022/10/04 23:30:28;;;;;;;13.80;7.68;;;;;;;13.39;79.53;100616.38;10311606;28;20144;-63
2022/10/04 23:35:31;;;;;;;8.70;6.45;;;;;;;13.41;79.41;100614.41;10299759;28;20412;-62
2022/10/04 23:40:33;;;;;;;7.03;6.30;;;;;;;13.50;79.97;100626.13;10303660;28;20435;-63
2022/10/04 23:45:40;;;;;;;7.53;6.47;;;;;;;13.50;80.48;100627.97;10302554;28;20045;-62
2022/10/04 23:50:42;;;;;;;6.40;5.75;;;;;;;13.57;79.56;100634.47;10304620;28;20048;-62
2022/10/04 23:55:44;;;;;;;6.95;5.85;;;;;;;13.56;80.83;100630.09;10294544;28;20061;-62
